航空気象通報

ウインドサーファーのための航空気象通報による風予報です。

1/4-1/6の航空気象通報

2017年01月04日 23時53分56秒 | TAF
羽田空港
TAF RJTT 041107Z 0412/0518 34018KT 9999 FEW030
TEMPO 0412/0419 34024G34KT
TEMPO 0503/0512 34020G30KT
日本時間4日21時-6日03時:340度から18ノットの風
但し、4日21時-5日04時の間:ときどき340度から24ノット、突風34ノット
但し、5日12-21時の間:ときどき340度から20ノット、突風30ノット


静岡空港
TAF RJNS 041106Z 0412/0518 27016KT 9999 FEW030
BECMG 0509/0512 30006KT
日本時間4日21時-5日18時:270度から16ノットの風
18-21時:風が変化
21時-6日03時:300度から6ノットの風


福岡空港
TAF RJFF 041106Z 0412/0518 13003KT 9999 FEW030
BECMG 0500/0503 04007KT
日本時間4日21時-5日09時:130度から3ノットの風
09-12時:風が変化
12時-6日03時:040度から7ノットの風


那覇空港
TAF ROAH 041106Z 0412/0518 13005KT 9999 FEW025 BKN045
BECMG 0421/0423 07006KT
日本時間4日21時-5日06時:130度から5ノットの風
06-08時:風が変化
08時-6日03時:070度から6ノットの風


石垣空港
TAF ROIG 041108Z 0412/0518 VRB02KT 9999 FEW025 SCT045
BECMG 0500/0503 15006KT
日本時間4日21時-5日09時:風向不定2ノットの風
09-12時:風が変化
12時-6日03時:150度から6ノットの風


マウイのカフルイ空港
PHOG 041120Z 0412/0512 05006KT P6SM FEW045
FM042000 03011KT P6SM FEW030 SCT050
FM050500 05006KT P6SM FEW035 AMD LTD TO VIS AND WIND TIL 041600
ハワイ時間4日02-10時:050度から6ノットの風
10-19時:030度から11ノットの風
19時-5日02時:050度から6ノットの風


サイパン空港
PGSN 041146Z 0412/0512 05014G24KT P6SM VCSH SCT012 BKN040 BKN100
TEMPO 0412/0416 -SHRA SCT010 BKN030
マリアナ時間4日22時-5日22時:050度から14ノット、突風24ノット

但し、4日22時-5日02時の間:ときどき
ジャンル:
お天気
コメント   この記事についてブログを書く
この記事をはてなブックマークに追加
« 1/3-1/5の航空気象通報 | トップ | 1/5-1/7の航空気象通報 »
最近の画像もっと見る

コメントを投稿

ブログ作成者から承認されるまでコメントは反映されません。

TAF」カテゴリの最新記事

トラックバック

この記事のトラックバック  Ping-URL
ブログ作成者から承認されるまでトラックバックは反映されません。
  • 30日以上前の記事に対するトラックバックは受け取らないよう設定されております。
  • 送信元の記事内容が半角英数のみのトラックバックは受け取らないよう設定されております。
  • このブログへのリンクがない記事からのトラックバックは受け取らないよう設定されております。
  • ※ブログ管理者のみ、編集画面で設定の変更が可能です。